Time;durP1;ratioP1;P1;durP2;ratioP2;P2;SDS_P1;SDS_P2;PMS_P1;PMS_P2;Temp;Humidity;BMP_temperature;BMP_pressure;BME280_temperature;BME280_humidity;BME280_pressure;Samples;Min_cycle;Max_cycle;Signal;HPM_P1;HPM_P2
2023/05/12 00:00:38;;;;;;;15.63;10.33;;;14.50;99.90;;;;;;5072160;28;20896;-73
2023/05/12 00:03:03;;;;;;;16.63;11.13;;;14.50;99.90;;;;;;5072052;28;20512;-72
2023/05/12 00:05:29;;;;;;;19.30;10.37;;;14.50;99.90;;;;;;5072124;28;20162;-72
2023/05/12 00:07:55;;;;;;;15.00;9.37;;;14.50;99.90;;;;;;5071706;28;20605;-72
2023/05/12 00:10:20;;;;;;;15.37;9.13;;;14.50;99.90;;;;;;5071942;28;20197;-72
2023/05/12 00:12:46;;;;;;;12.40;9.80;;;14.50;99.90;;;;;;5071834;28;20170;-72
2023/05/12 00:15:12;;;;;;;13.37;8.33;;;14.40;99.90;;;;;;5071762;28;20209;-71
2023/05/12 00:17:38;;;;;;;18.67;9.50;;;14.40;99.90;;;;;;5071561;28;20444;-72
2023/05/12 00:20:04;;;;;;;14.33;9.10;;;14.40;99.90;;;;;;5071934;28;20162;-73
2023/05/12 00:22:30;;;;;;;13.93;8.73;;;14.40;99.90;;;;;;5071771;28;20189;-73
2023/05/12 00:24:56;;;;;;;11.57;8.27;;;14.40;99.90;;;;;;5071709;28;20521;-72
2023/05/12 00:27:21;;;;;;;13.10;8.23;;;14.40;99.90;;;;;;5071353;28;20460;-72
2023/05/12 00:29:47;;;;;;;12.30;8.20;;;14.40;99.90;;;;;;5071840;28;20172;-72
2023/05/12 00:32:13;;;;;;;12.07;6.60;;;14.40;99.90;;;;;;5071773;28;20170;-73
2023/05/12 00:34:38;;;;;;;13.07;8.27;;;14.40;99.90;;;;;;5071575;28;20208;-73
2023/05/12 00:37:05;;;;;;;11.13;7.73;;;14.40;99.90;;;;;;5071351;28;20213;-72
2023/05/12 00:39:30;;;;;;;15.53;8.23;;;14.40;99.90;;;;;;5071628;28;20162;-72
2023/05/12 00:41:57;;;;;;;11.10;7.40;;;14.40;99.90;;;;;;5071569;28;20920;-71
2023/05/12 00:44:23;;;;;;;13.10;8.10;;;14.40;99.90;;;;;;5071930;28;20664;-73
2023/05/12 00:46:49;;;;;;;11.60;7.50;;;14.50;99.90;;;;;;5071528;28;20432;-73
2023/05/12 00:49:15;;;;;;;17.13;9.53;;;14.50;99.90;;;;;;5071564;28;20194;-74
2023/05/12 00:51:41;;;;;;;12.87;7.40;;;14.50;99.90;;;;;;5072962;28;20926;-73
2023/05/12 00:54:07;;;;;;;11.37;7.60;;;14.50;99.90;;;;;;5075443;28;20176;-74
2023/05/12 00:56:38;;;;;;;15.63;8.83;;;14.50;99.90;;;;;;5075395;28;20462;-73
2023/05/12 00:59:07;;;;;;;10.30;7.97;;;14.50;99.90;;;;;;5075207;28;20408;-73
2023/05/12 01:01:33;;;;;;;12.87;8.13;;;14.50;99.90;;;;;;5075471;28;20408;-73
2023/05/12 01:03:59;;;;;;;11.77;7.20;;;14.50;99.90;;;;;;5075325;28;20407;-72
2023/05/12 01:06:41;;;;;;;11.50;7.33;;;14.50;99.90;;;;;;5075269;28;20800;-73
2023/05/12 01:09:07;;;;;;;8.30;6.37;;;14.50;99.90;;;;;;5074036;28;20765;-73
2023/05/12 01:11:33;;;;;;;10.93;6.97;;;14.50;99.90;;;;;;5075136;28;20408;-72
2023/05/12 01:13:58;;;;;;;11.63;7.33;;;14.60;99.90;;;;;;5074887;28;20425;-74
2023/05/12 01:16:32;;;;;;;13.87;7.10;;;14.60;99.90;;;;;;5057072;28;20201;-73
2023/05/12 01:18:58;;;;;;;11.53;7.97;;;14.60;99.90;;;;;;5074755;28;20242;-73
2023/05/12 01:21:24;;;;;;;9.80;6.70;;;14.60;99.90;;;;;;5075038;28;20517;-73
2023/05/12 01:24:01;;;;;;;15.60;7.27;;;14.60;99.90;;;;;;5074958;28;20435;-74
2023/05/12 01:26:28;;;;;;;9.87;7.10;;;14.60;99.90;;;;;;5074745;28;20200;-72
2023/05/12 01:28:55;;;;;;;14.00;7.67;;;14.60;99.90;;;;;;5074563;28;20781;-73
2023/05/12 01:31:21;;;;;;;12.23;7.63;;;14.60;99.90;;;;;;5074869;28;20487;-73
2023/05/12 01:33:47;;;;;;;9.43;7.57;;;14.60;99.90;;;;;;5074836;28;20404;-72
2023/05/12 01:36:12;;;;;;;16.50;10.67;;;14.60;99.90;;;;;;5074483;28;20543;-72
2023/05/12 01:38:38;;;;;;;7.80;6.00;;;14.60;99.90;;;;;;5074363;28;20208;-72
2023/05/12 01:41:03;;;;;;;7.50;6.27;;;14.60;99.90;;;;;;5074549;28;20249;-72
2023/05/12 01:43:29;;;;;;;8.90;5.93;;;14.60;99.90;;;;;;5074626;28;20170;-72
2023/05/12 01:45:55;;;;;;;7.20;5.30;;;14.70;99.90;;;;;;5074475;28;20170;-72
2023/05/12 01:48:20;;;;;;;8.10;5.73;;;14.60;99.90;;;;;;5074239;28;20215;-72
2023/05/12 01:50:46;;;;;;;8.30;6.07;;;14.60;99.90;;;;;;5074398;28;20187;-73
2023/05/12 01:53:11;;;;;;;11.40;7.20;;;14.60;99.90;;;;;;5074411;28;20185;-73
2023/05/12 01:55:37;;;;;;;8.00;6.43;;;14.60;99.90;;;;;;5074352;28;20233;-73
2023/05/12 01:58:02;;;;;;;8.90;5.90;;;14.70;99.90;;;;;;5074127;28;20194;-73
2023/05/12 02:00:28;;;;;;;9.00;5.63;;;14.60;99.90;;;;;;5074269;28;20655;-73
2023/05/12 02:02:53;;;;;;;8.80;5.97;;;14.60;99.90;;;;;;5073747;28;20171;-72
2023/05/12 02:05:19;;;;;;;8.43;6.40;;;14.50;99.90;;;;;;5056205;28;20174;-73
2023/05/12 02:07:44;;;;;;;13.07;7.93;;;14.50;99.90;;;;;;5073843;28;20190;-73
2023/05/12 02:10:10;;;;;;;9.63;6.80;;;14.50;99.90;;;;;;5074156;28;20170;-73
2023/05/12 02:12:36;;;;;;;9.90;6.50;;;14.40;99.90;;;;;;5056161;28;20178;-73
2023/05/12 02:15:01;;;;;;;9.27;7.13;;;14.40;99.90;;;;;;5074018;28;20197;-72
2023/05/12 02:17:27;;;;;;;7.80;5.73;;;14.40;99.90;;;;;;5073571;28;20198;-72
2023/05/12 02:19:53;;;;;;;8.57;5.33;;;14.40;99.90;;;;;;5073740;28;20158;-72
2023/05/12 02:22:18;;;;;;;6.97;5.27;;;14.40;99.90;;;;;;5073724;28;20963;-73
2023/05/12 02:24:44;;;;;;;8.53;5.67;;;14.40;99.90;;;;;;5073747;28;20205;-73
2023/05/12 02:27:10;;;;;;;9.40;6.20;;;14.40;99.90;;;;;;5073493;28;20248;-72
2023/05/12 02:29:36;;;;;;;10.27;5.73;;;14.50;99.90;;;;;;5073811;28;20216;-74
2023/05/12 02:32:02;;;;;;;8.50;5.20;;;14.50;99.90;;;;;;5073756;28;20163;-72
2023/05/12 02:34:28;;;;;;;10.40;5.47;;;14.50;99.90;;;;;;5073682;28;20798;-72
2023/05/12 02:36:53;;;;;;;10.83;5.40;;;14.60;99.90;;;;;;5073242;28;20493;-73
2023/05/12 02:39:19;;;;;;;8.90;4.73;;;14.60;99.90;;;;;;5055613;28;20158;-73
2023/05/12 02:41:44;;;;;;;7.30;4.93;;;14.60;99.90;;;;;;5073279;28;20166;-73
2023/05/12 02:44:10;;;;;;;6.60;5.23;;;14.70;99.90;;;;;;5073489;28;20162;-73
2023/05/12 02:46:36;;;;;;;6.67;5.13;;;14.70;99.90;;;;;;5073299;28;20236;-72
2023/05/12 02:49:01;;;;;;;6.53;5.73;;;14.70;99.90;;;;;;5073046;28;20283;-72
2023/05/12 02:51:27;;;;;;;8.63;5.60;;;14.80;99.90;;;;;;5073260;28;20241;-72
2023/05/12 02:53:53;;;;;;;6.57;4.80;;;14.80;99.90;;;;;;5073311;28;20162;-72
2023/05/12 02:56:19;;;;;;;9.20;4.77;;;14.80;99.90;;;;;;5073158;28;20202;-72
2023/05/12 02:58:44;;;;;;;8.07;5.10;;;14.80;99.90;;;;;;5072878;28;20163;-72
2023/05/12 03:01:10;;;;;;;9.00;6.13;;;14.80;99.90;;;;;;5073156;28;20396;-73
2023/05/12 03:03:35;;;;;;;7.80;5.80;;;14.90;99.90;;;;;;5073005;28;20167;-72
2023/05/12 03:06:02;;;;;;;9.37;6.43;;;14.90;99.90;;;;;;5073040;28;20193;-72
2023/05/12 03:08:29;;;;;;;8.90;5.93;;;14.90;99.90;;;;;;5072724;28;20162;-72
2023/05/12 03:10:54;;;;;;;9.87;6.03;;;14.90;99.90;;;;;;5072988;28;20415;-72
2023/05/12 03:13:20;;;;;;;11.40;6.53;;;14.90;99.90;;;;;;5072733;28;20188;-72
2023/05/12 03:15:45;;;;;;;5.73;5.17;;;14.90;99.90;;;;;;5071960;28;20201;-72
2023/05/12 03:18:10;;;;;;;7.80;5.57;;;14.90;99.90;;;;;;5072425;28;20166;-72
2023/05/12 03:20:36;;;;;;;8.00;4.87;;;14.90;99.90;;;;;;5072766;28;20527;-72
2023/05/12 03:23:02;;;;;;;6.80;3.90;;;14.80;99.90;;;;;;5072685;28;20162;-73
2023/05/12 03:25:28;;;;;;;5.80;4.10;;;14.80;99.90;;;;;;5072707;28;20200;-71
2023/05/12 03:27:53;;;;;;;7.57;5.10;;;14.80;99.90;;;;;;5072292;28;20951;-73
2023/05/12 03:30:19;;;;;;;6.33;4.97;;;14.80;99.90;;;;;;5072661;28;20639;-73
2023/05/12 03:32:45;;;;;;;4.67;4.00;;;14.80;99.90;;;;;;5072516;28;20184;-73
2023/05/12 03:35:10;;;;;;;6.37;4.77;;;14.80;99.90;;;;;;5072438;28;20201;-72
2023/05/12 03:37:36;;;;;;;4.70;3.67;;;14.80;99.90;;;;;;5072016;28;20268;-73
2023/05/12 03:40:02;;;;;;;5.60;4.30;;;14.80;99.90;;;;;;5072375;28;20162;-73
2023/05/12 03:42:27;;;;;;;4.67;3.83;;;14.80;99.90;;;;;;5054516;28;20173;-73
2023/05/12 03:44:53;;;;;;;7.23;4.27;;;14.80;99.90;;;;;;5054450;28;20177;-73
2023/05/12 03:47:18;;;;;;;4.80;3.93;;;14.80;99.90;;;;;;5054037;28;20221;-72
2023/05/12 03:49:44;;;;;;;4.53;4.10;;;14.70;99.90;;;;;;5072204;28;20177;-72
2023/05/12 03:52:09;;;;;;;3.93;3.53;;;14.70;99.90;;;;;;5072233;28;20177;-73
2023/05/12 03:54:35;;;;;;;4.60;3.60;;;14.80;99.90;;;;;;5071980;28;20620;-73
2023/05/12 03:57:00;;;;;;;4.43;3.33;;;14.70;99.90;;;;;;5071921;28;20616;-73
2023/05/12 03:59:29;;;;;;;4.63;3.67;;;14.70;99.90;;;;;;5072148;28;20573;-73
2023/05/12 04:01:55;;;;;;;3.60;3.30;;;14.70;99.90;;;;;;5072084;28;20162;-72
2023/05/12 04:04:20;;;;;;;5.33;3.70;;;14.70;99.90;;;;;;5072036;28;20954;-73
2023/05/12 04:06:46;;;;;;;5.20;3.57;;;14.70;99.90;;;;;;5071954;28;20178;-72
2023/05/12 04:09:11;;;;;;;4.17;3.57;;;14.80;99.90;;;;;;5071658;28;20249;-72
2023/05/12 04:11:37;;;;;;;3.90;3.30;;;14.80;99.90;;;;;;5071774;28;20166;-72
2023/05/12 04:14:03;;;;;;;4.00;3.23;;;14.70;99.90;;;;;;5071862;28;20740;-72
2023/05/12 04:16:28;;;;;;;3.07;2.53;;;14.80;99.90;;;;;;5072250;28;20573;-72
2023/05/12 04:18:56;;;;;;;3.50;3.07;;;14.80;99.90;;;;;;5071404;28;20492;-72
2023/05/12 04:21:21;;;;;;;5.93;2.97;;;14.80;99.90;;;;;;5071908;28;20499;-73
2023/05/12 04:23:51;;;;;;;4.93;3.20;;;14.80;99.90;;;;;;5053884;28;20434;-73
2023/05/12 04:26:16;;;;;;;3.30;3.00;;;14.80;99.90;;;;;;5071728;28;20186;-73
2023/05/12 04:28:42;;;;;;;3.57;3.20;;;14.80;99.90;;;;;;5071543;28;20413;-73
2023/05/12 04:31:07;;;;;;;5.10;3.53;;;14.80;99.90;;;;;;5053959;28;20177;-72
2023/05/12 04:33:33;;;;;;;5.80;4.20;;;14.90;99.90;;;;;;5071576;28;20167;-73
2023/05/12 04:35:59;;;;;;;12.83;4.20;;;14.90;99.90;;;;;;5070284;28;20223;-73
2023/05/12 04:38:25;;;;;;;6.20;3.90;;;14.90;99.90;;;;;;5071481;28;20197;-72
2023/05/12 04:40:50;;;;;;;5.90;4.37;;;14.90;99.90;;;;;;5071688;28;20155;-73
2023/05/12 04:43:15;;;;;;;6.33;3.77;;;15.00;99.90;;;;;;5071653;28;20767;-73
2023/05/12 04:45:41;;;;;;;6.83;3.90;;;15.00;99.90;;;;;;5071533;28;20166;-73
2023/05/12 04:48:06;;;;;;;6.00;4.50;;;15.10;99.90;;;;;;5053385;28;20225;-73
2023/05/12 04:50:32;;;;;;;6.13;4.63;;;15.10;99.90;;;;;;5071559;28;20518;-73
2023/05/12 04:52:57;;;;;;;5.57;4.50;;;15.10;99.90;;;;;;5071615;28;20249;-73
2023/05/12 04:55:23;;;;;;;4.93;3.90;;;15.10;99.90;;;;;;5071584;28;20232;-73
2023/05/12 04:57:49;;;;;;;3.37;3.00;;;15.20;99.90;;;;;;5071235;28;20265;-73
2023/05/12 05:00:15;;;;;;;3.17;2.87;;;15.10;99.90;;;;;;5071471;28;20163;-73
2023/05/12 05:02:40;;;;;;;3.60;2.90;;;15.20;99.90;;;;;;5071583;28;20842;-73
2023/05/12 05:05:06;;;;;;;3.43;2.97;;;15.20;99.90;;;;;;5071645;28;20401;-73
2023/05/12 05:07:32;;;;;;;3.27;2.97;;;15.20;99.90;;;;;;5071195;28;20674;-72
2023/05/12 05:09:57;;;;;;;2.60;2.40;;;15.20;99.90;;;;;;5071483;28;20435;-72
2023/05/12 05:12:24;;;;;;;2.90;2.37;;;15.30;99.90;;;;;;5071514;28;20171;-72
2023/05/12 05:14:50;;;;;;;2.97;2.50;;;15.40;99.90;;;;;;5071247;28;20586;-71
2023/05/12 05:17:15;;;;;;;3.57;2.77;;;15.40;99.90;;;;;;5071137;28;20439;-73
2023/05/12 05:19:41;;;;;;;2.63;2.43;;;15.50;99.90;;;;;;5071325;28;20558;-72
2023/05/12 05:22:06;;;;;;;2.60;2.40;;;15.50;99.90;;;;;;5071478;28;20162;-72
2023/05/12 05:24:32;;;;;;;2.17;1.93;;;15.50;99.90;;;;;;5071580;28;20238;-72
2023/05/12 05:26:58;;;;;;;3.20;2.50;;;15.60;99.90;;;;;;5071188;28;20186;-72
2023/05/12 05:29:25;;;;;;;2.90;2.27;;;15.60;99.90;;;;;;5071362;28;20576;-72
2023/05/12 05:31:51;;;;;;;3.23;2.20;;;15.60;99.90;;;;;;5071280;28;20412;-72
2023/05/12 05:34:17;;;;;;;2.53;2.33;;;15.50;99.90;;;;;;5071245;28;20488;-73
2023/05/12 05:36:42;;;;;;;2.40;2.20;;;15.50;99.90;;;;;;5071177;28;20499;-73
2023/05/12 05:39:09;;;;;;;3.03;1.73;;;15.50;99.90;;;;;;5072902;28;20613;-72
2023/05/12 05:41:34;;;;;;;3.30;1.97;;;15.60;99.90;;;;;;5074721;28;20189;-73
2023/05/12 05:44:00;;;;;;;2.30;1.83;;;15.60;99.90;;;;;;5074647;28;20436;-72
2023/05/12 05:46:26;;;;;;;2.60;2.23;;;15.60;99.90;;;;;;5074566;28;20210;-73
2023/05/12 05:48:51;;;;;;;2.40;2.20;;;15.60;99.90;;;;;;5074274;28;20195;-72
2023/05/12 05:51:17;;;;;;;2.20;2.00;;;15.60;99.90;;;;;;5074593;28;20635;-72
2023/05/12 05:53:42;;;;;;;3.10;2.70;;;15.50;99.90;;;;;;5074540;28;20211;-73
2023/05/12 05:56:08;;;;;;;4.00;2.20;;;15.60;99.90;;;;;;5074285;28;20568;-73
2023/05/12 05:58:33;;;;;;;3.90;2.10;;;15.60;99.90;;;;;;5074174;28;20752;-73
2023/05/12 06:00:59;;;;;;;2.67;2.47;;;15.70;99.90;;;;;;5074341;28;20163;-72
2023/05/12 06:03:25;;;;;;;2.50;2.30;;;15.70;99.90;;;;;;5074285;28;20163;-72
2023/05/12 06:05:50;;;;;;;2.40;2.20;;;15.80;99.90;;;;;;5074246;28;20184;-72
2023/05/12 06:08:16;;;;;;;1.70;1.60;;;15.80;99.90;;;;;;5073912;28;20174;-72
2023/05/12 06:10:41;;;;;;;6.77;2.47;;;15.90;99.90;;;;;;5074291;28;20170;-73
2023/05/12 06:13:07;;;;;;;2.80;2.37;;;15.90;99.90;;;;;;5073925;28;20535;-73
2023/05/12 06:15:32;;;;;;;2.20;2.00;;;15.90;99.90;;;;;;5056175;28;20563;-73
2023/05/12 06:17:58;;;;;;;3.13;2.50;;;15.90;99.90;;;;;;5073731;28;20232;-73
2023/05/12 06:20:24;;;;;;;2.27;2.07;;;15.90;99.90;;;;;;5074133;28;20194;-73
2023/05/12 06:22:51;;;;;;;2.43;2.23;;;16.00;99.90;;;;;;5074010;28;20163;-73
2023/05/12 06:25:17;;;;;;;2.90;2.57;;;16.00;99.90;;;;;;5073998;28;20442;-72
2023/05/12 06:27:42;;;;;;;2.70;2.43;;;15.90;99.90;;;;;;5073515;28;20420;-72
2023/05/12 06:30:08;;;;;;;4.20;2.77;;;15.90;99.90;;;;;;5073857;28;20640;-72
2023/05/12 06:32:34;;;;;;;3.27;2.33;;;15.90;99.90;;;;;;5073797;28;20241;-73
2023/05/12 06:34:59;;;;;;;4.33;1.83;;;15.90;99.90;;;;;;5073769;28;20556;-72
2023/05/12 06:37:25;;;;;;;2.93;2.60;;;15.90;99.90;;;;;;5073381;28;20189;-73
2023/05/12 06:39:51;;;;;;;2.50;2.30;;;16.00;99.90;;;;;;5073682;28;20162;-72
2023/05/12 06:42:16;;;;;;;2.70;1.83;;;16.00;99.90;;;;;;5073523;28;20162;-73
2023/05/12 06:44:42;;;;;;;2.50;2.23;;;15.90;99.90;;;;;;5073283;28;20223;-73
2023/05/12 06:47:08;;;;;;;3.17;2.73;;;15.90;99.90;;;;;;5073121;28;20182;-69
2023/05/12 06:49:35;;;;;;;2.27;2.07;;;15.90;99.90;;;;;;5073375;28;20166;-69
2023/05/12 06:52:01;;;;;;;3.63;2.37;;;16.00;99.90;;;;;;5073409;28;20168;-69
2023/05/12 06:54:27;;;;;;;2.70;2.50;;;16.00;99.90;;;;;;5073370;28;20440;-69
2023/05/12 06:56:53;;;;;;;2.50;2.30;;;16.30;99.90;;;;;;5055015;28;21173;-68
2023/05/12 06:59:18;;;;;;;5.23;2.60;;;16.40;99.90;;;;;;5073224;28;20247;-68
2023/05/12 07:01:44;;;;;;;5.47;1.97;;;16.60;99.90;;;;;;5073189;28;20173;-68
2023/05/12 07:04:09;;;;;;;2.83;2.00;;;16.60;99.90;;;;;;5073181;28;20670;-68
2023/05/12 07:06:35;;;;;;;2.60;2.40;;;16.70;99.90;;;;;;5073154;28;20190;-68
2023/05/12 07:09:00;;;;;;;4.00;2.20;;;16.60;99.90;;;;;;5072768;28;20177;-69
2023/05/12 07:11:26;;;;;;;2.07;1.87;;;16.70;99.90;;;;;;5073028;28;20211;-68
2023/05/12 07:13:51;;;;;;;2.23;1.70;;;16.90;99.90;;;;;;5072877;28;20208;-68
2023/05/12 07:16:18;;;;;;;2.93;2.47;;;17.20;99.90;;;;;;5072818;28;20209;-68
2023/05/12 07:18:44;;;;;;;2.60;2.10;;;17.50;99.90;;;;;;5072616;28;20555;-69
2023/05/12 07:21:09;;;;;;;2.40;2.20;;;17.90;99.90;;;;;;5072891;28;20400;-68
2023/05/12 07:23:36;;;;;;;2.37;1.90;;;18.50;99.90;;;;;;5072830;28;20397;-68
2023/05/12 07:26:03;;;;;;;2.17;2.03;;;19.10;99.90;;;;;;5072502;28;20177;-68
2023/05/12 07:28:36;;;;;;;2.67;2.20;;;19.60;99.90;;;;;;5072370;28;20522;-68
2023/05/12 07:31:07;;;;;;;2.83;2.10;;;19.90;99.90;;;;;;5072664;28;20400;-69
2023/05/12 07:33:33;;;;;;;2.90;2.60;;;20.00;99.90;;;;;;5072613;28;20817;-68
2023/05/12 07:35:59;;;;;;;2.20;1.87;;;19.80;99.90;;;;;;5072369;28;20455;-68
2023/05/12 07:38:25;;;;;;;2.33;2.17;;;19.50;99.90;;;;;;5072248;28;20400;-68
2023/05/12 07:40:50;;;;;;;3.37;1.90;;;19.20;99.90;;;;;;5072324;28;20415;-68
2023/05/12 07:43:16;;;;;;;2.53;2.13;;;19.10;99.90;;;;;;5072462;28;20174;-68
2023/05/12 07:45:42;;;;;;;3.53;2.20;;;18.90;99.90;;;;;;5072345;28;20724;-68
2023/05/12 07:48:10;;;;;;;2.37;2.17;;;18.70;99.90;;;;;;5071985;28;20198;-68
2023/05/12 07:50:35;;;;;;;2.20;2.00;;;18.50;99.90;;;;;;5072201;28;20419;-68
2023/05/12 07:53:01;;;;;;;1.93;1.73;;;18.20;99.90;;;;;;5072344;28;20404;-67
2023/05/12 07:55:27;;;;;;;2.90;2.50;;;18.00;99.90;;;;;;5072070;28;20202;-66
2023/05/12 07:57:52;;;;;;;3.00;2.50;;;18.00;99.90;;;;;;5071900;28;20190;-66
2023/05/12 08:00:18;;;;;;;2.10;2.00;;;18.00;99.90;;;;;;5072076;28;20539;-68
2023/05/12 08:02:43;;;;;;;2.80;1.80;;;18.20;99.90;;;;;;5071756;28;20174;-68
2023/05/12 08:05:10;;;;;;;2.30;2.10;;;18.20;99.90;;;;;;5072131;28;20253;-68
2023/05/12 08:07:37;;;;;;;2.40;2.20;;;18.40;99.90;;;;;;5071729;28;20239;-68
2023/05/12 08:10:04;;;;;;;2.50;2.30;;;18.50;99.90;;;;;;5071994;28;20440;-68
2023/05/12 08:12:29;;;;;;;2.50;2.30;;;18.80;99.90;;;;;;5072076;28;20442;-68
2023/05/12 08:14:55;;;;;;;3.67;2.60;;;19.00;99.90;;;;;;5071896;28;20456;-68
2023/05/12 08:17:21;;;;;;;1.83;1.63;;;19.10;99.90;;;;;;5071707;28;20190;-68
2023/05/12 08:19:46;;;;;;;2.80;2.17;;;19.00;99.90;;;;;;5071960;28;20215;-68
2023/05/12 08:22:12;;;;;;;2.20;2.00;;;18.70;99.90;;;;;;5071098;28;20224;-67
2023/05/12 08:24:37;;;;;;;2.00;1.70;;;18.70;99.90;;;;;;5071972;28;20193;-66
2023/05/12 08:27:03;;;;;;;1.97;1.83;;;18.80;99.90;;;;;;5071511;28;20194;-68
2023/05/12 08:29:28;;;;;;;2.27;2.07;;;19.00;99.90;;;;;;5071771;28;20178;-65
2023/05/12 08:31:54;;;;;;;1.93;1.83;;;19.50;99.90;;;;;;5071887;28;20583;-68
2023/05/12 08:34:20;;;;;;;2.73;1.90;;;20.10;99.90;;;;;;5071806;28;20174;-69
2023/05/12 08:36:46;;;;;;;2.20;2.00;;;20.70;99.90;;;;;;5071708;28;20427;-66
2023/05/12 08:39:11;;;;;;;2.20;2.00;;;21.20;99.90;;;;;;5071595;28;20216;-66
2023/05/12 08:41:56;;;;;;;1.57;1.47;;;21.60;99.90;;;;;;5071836;28;20185;-66
2023/05/12 08:44:23;;;;;;;1.60;1.50;;;21.60;99.90;;;;;;5071705;28;20174;-66
2023/05/12 08:46:51;;;;;;;1.70;1.60;;;21.40;99.90;;;;;;5071455;28;20515;-68
2023/05/12 08:49:20;;;;;;;1.83;1.63;;;21.40;99.90;;;;;;5071613;28;20404;-68
2023/05/12 08:51:47;;;;;;;2.00;1.80;;;21.40;99.90;;;;;;5071270;28;20910;-68
2023/05/12 08:54:13;;;;;;;1.97;1.77;;;21.50;99.90;;;;;;5071578;28;20186;-65
2023/05/12 08:56:42;;;;;;;1.77;1.67;;;21.60;99.90;;;;;;5071488;28;20969;-67
2023/05/12 08:59:09;;;;;;;1.73;1.63;;;22.10;99.90;;;;;;5071314;28;20276;-67
2023/05/12 09:01:35;;;;;;;1.83;1.70;;;22.50;99.90;;;;;;5071650;28;20400;-67
2023/05/12 09:04:03;;;;;;;1.70;1.60;;;23.10;99.90;;;;;;5071890;28;20961;-67
2023/05/12 09:06:28;;;;;;;2.13;1.63;;;23.20;99.90;;;;;;5071373;28;20424;-67
2023/05/12 09:08:54;;;;;;;1.90;1.80;;;23.20;99.90;;;;;;5070653;28;20924;-67
2023/05/12 09:11:20;;;;;;;1.90;1.80;;;23.40;99.90;;;;;;5071247;28;20178;-67
2023/05/12 09:14:10;;;;;;;1.73;1.63;;;24.00;99.90;;;;;;5072793;28;20586;-67
2023/05/12 09:16:43;;;;;;;1.40;1.30;;;24.40;96.50;;;;;;5073602;28;20502;-67
2023/05/12 09:19:08;;;;;;;1.73;1.63;;;25.00;95.40;;;;;;5074433;28;20400;-67
2023/05/12 09:21:34;;;;;;;1.80;1.50;;;25.00;91.30;;;;;;5074734;28;20404;-67
2023/05/12 09:24:05;;;;;;;1.53;1.43;;;24.90;90.80;;;;;;5074866;28;20236;-67
2023/05/12 09:26:43;;;;;;;1.60;1.50;;;25.80;92.80;;;;;;5064731;28;20191;-67
2023/05/12 09:29:10;;;;;;;1.73;1.63;;;26.70;91.10;;;;;;5061586;28;20396;-68
2023/05/12 09:31:35;;;;;;;1.60;1.50;;;27.00;76.20;;;;;;5067782;28;20941;-68
2023/05/12 09:34:08;;;;;;;2.07;1.80;;;27.30;71.60;;;;;;5055531;28;20408;-68
2023/05/12 09:36:34;;;;;;;2.70;1.73;;;28.10;67.30;;;;;;5055277;28;20260;-68
2023/05/12 09:39:05;;;;;;;1.67;1.57;;;28.40;63.40;;;;;;5055261;28;20401;-68
2023/05/12 09:41:35;;;;;;;1.70;1.60;;;28.90;62.10;;;;;;5055115;28;20477;-68
2023/05/12 09:44:01;;;;;;;1.50;1.40;;;28.80;57.80;;;;;;5055227;28;20401;-68
2023/05/12 09:46:27;;;;;;;2.10;1.90;;;27.90;56.50;;;;;;5065341;28;20440;-68
2023/05/12 09:48:56;;;;;;;1.70;1.60;;;27.10;58.50;;;;;;5074620;28;20473;-68
2023/05/12 09:51:22;;;;;;;1.90;1.80;;;26.80;59.50;;;;;;5075107;28;20208;-68
2023/05/12 09:53:48;;;;;;;1.80;1.70;;;26.70;60.90;;;;;;5074913;28;20887;-68
2023/05/12 09:56:15;;;;;;;2.70;2.00;;;26.80;61.10;;;;;;5074616;28;20252;-68
2023/05/12 09:58:46;;;;;;;1.83;1.73;;;27.00;61.50;;;;;;5074671;28;20401;-68
2023/05/12 10:01:17;;;;;;;1.97;1.87;;;27.00;60.90;;;;;;5074618;28;20446;-68
2023/05/12 10:03:47;;;;;;;1.77;1.67;;;27.10;61.20;;;;;;5056422;28;20451;-68
2023/05/12 10:06:32;;;;;;;3.00;2.03;;;27.60;62.30;;;;;;5056757;28;20442;-69
2023/05/12 10:09:23;;;;;;;2.07;1.83;;;28.20;61.30;;;;;;5074520;28;20834;-69
2023/05/12 10:11:49;;;;;;;2.20;2.10;;;29.00;59.30;;;;;;5074627;28;20905;-68
2023/05/12 10:14:16;;;;;;;2.33;2.17;;;29.00;57.00;;;;;;5074471;28;20424;-69
2023/05/12 10:16:46;;;;;;;1.80;1.70;;;29.00;57.10;;;;;;5074239;28;20448;-69
2023/05/12 10:19:13;;;;;;;1.97;1.87;;;28.90;55.80;;;;;;5074324;28;20392;-68
2023/05/12 10:21:41;;;;;;;5.43;2.37;;;28.60;54.80;;;;;;5074448;28;20454;-69
2023/05/12 10:24:07;;;;;;;2.23;2.03;;;28.40;55.10;;;;;;5073734;28;20433;-68
2023/05/12 10:26:33;;;;;;;2.17;1.97;;;28.30;55.50;;;;;;5074077;28;20811;-69
2023/05/12 10:28:59;;;;;;;2.10;1.93;;;28.30;56.70;;;;;;5073807;28;20159;-68
2023/05/12 10:31:26;;;;;;;1.80;1.70;;;28.30;55.30;;;;;;5074256;28;20414;-69
2023/05/12 10:34:00;;;;;;;2.07;1.90;;;28.50;54.10;;;;;;5074251;28;20162;-69
2023/05/12 10:36:25;;;;;;;2.07;1.87;;;29.90;54.50;;;;;;5074018;28;20456;-69
2023/05/12 10:38:51;;;;;;;6.00;1.77;;;32.00;50.00;;;;;;5073766;28;20903;-69
2023/05/12 10:41:29;;;;;;;1.80;1.70;;;33.40;47.40;;;;;;5073910;28;20163;-69
2023/05/12 10:43:54;;;;;;;2.50;2.00;;;36.00;44.10;;;;;;5073824;28;20435;-70
2023/05/12 10:46:21;;;;;;;2.00;1.80;;;38.00;40.70;;;;;;5073915;28;20424;-69
2023/05/12 10:49:03;;;;;;;2.03;1.80;;;38.50;38.60;;;;;;5055619;28;20515;-69
2023/05/12 10:51:47;;;;;;;2.57;1.93;;;38.50;35.30;;;;;;5073870;28;20897;-69
2023/05/12 10:54:19;;;;;;;2.20;2.00;;;36.90;35.50;;;;;;5073808;28;20392;-69
2023/05/12 10:56:44;;;;;;;1.97;1.87;;;36.90;34.90;;;;;;5073650;28;20460;-69
2023/05/12 10:59:18;;;;;;;2.03;1.83;;;37.10;36.80;;;;;;5073454;28;20411;-69
2023/05/12 11:01:59;;;;;;;2.10;2.00;;;37.10;34.80;;;;;;5055862;28;20170;-69
2023/05/12 11:04:46;;;;;;;2.00;1.90;;;38.60;36.80;;;;;;5073468;28;21007;-69
2023/05/12 11:07:13;;;;;;;1.60;1.50;;;40.20;32.30;;;;;;5073356;28;20451;-70
2023/05/12 11:09:43;;;;;;;2.03;1.93;;;40.00;31.40;;;;;;5073455;28;20404;-69
2023/05/12 11:12:10;;;;;;;2.10;2.00;;;38.20;31.50;;;;;;5073249;28;20438;-69
2023/05/12 11:14:36;;;;;;;3.17;2.00;;;38.00;32.80;;;;;;5072773;28;20959;-69
2023/05/12 11:17:03;;;;;;;2.83;1.70;;;36.10;33.10;;;;;;5072135;28;20432;-69
2023/05/12 11:19:29;;;;;;;2.07;1.70;;;35.20;33.90;;;;;;5072626;28;20491;-69
2023/05/12 11:21:55;;;;;;;2.27;2.07;;;34.30;35.20;;;;;;5072800;28;20754;-69
2023/05/12 11:24:20;;;;;;;2.00;1.90;;;33.80;37.20;;;;;;5072775;28;20397;-69
2023/05/12 11:26:50;;;;;;;2.00;1.80;;;33.00;38.40;;;;;;5072619;28;20247;-69
2023/05/12 11:29:20;;;;;;;2.13;1.93;;;32.10;39.10;;;;;;5072968;28;20658;-69
2023/05/12 11:31:49;;;;;;;2.03;1.90;;;30.90;40.40;;;;;;5072236;28;20404;-69
2023/05/12 11:34:19;;;;;;;1.67;1.53;;;29.60;41.80;;;;;;5072539;28;20909;-69
2023/05/12 11:36:45;;;;;;;4.57;1.77;;;28.50;43.30;;;;;;5071684;28;20819;-69
2023/05/12 11:39:35;;;;;;;2.17;1.90;;;27.60;44.80;;;;;;5072332;28;21095;-68
2023/05/12 11:42:03;;;;;;;2.40;2.20;;;26.80;46.40;;;;;;5072518;28;20407;-68
2023/05/12 11:44:29;;;;;;;1.97;1.77;;;26.30;48.10;;;;;;5072241;28;20404;-68
2023/05/12 11:46:57;;;;;;;2.80;1.97;;;26.20;49.40;;;;;;5072055;28;20585;-68
2023/05/12 11:49:24;;;;;;;2.30;2.10;;;26.40;49.80;;;;;;5054373;28;21052;-69
2023/05/12 11:51:54;;;;;;;2.03;1.83;;;26.70;49.70;;;;;;5072288;28;20432;-68
2023/05/12 11:54:20;;;;;;;2.40;2.20;;;26.90;48.80;;;;;;5072262;28;20403;-68
2023/05/12 11:56:50;;;;;;;2.27;2.03;;;27.00;48.50;;;;;;5071929;28;20452;-69
2023/05/12 11:59:26;;;;;;;2.27;2.07;;;27.10;49.00;;;;;;5072227;28;20185;-69
2023/05/12 12:01:52;;;;;;;2.83;2.10;;;27.00;46.60;;;;;;5071941;28;20398;-69
2023/05/12 12:04:18;;;;;;;2.50;1.67;;;27.60;48.10;;;;;;5054128;28;20940;-69
2023/05/12 12:06:44;;;;;;;2.10;2.00;;;30.40;49.10;;;;;;5071737;28;20437;-69
2023/05/12 12:09:11;;;;;;;3.27;1.87;;;33.70;44.10;;;;;;5071491;28;20251;-69
2023/05/12 12:11:36;;;;;;;2.13;2.03;;;35.20;39.10;;;;;;5071986;28;20428;-69
2023/05/12 12:14:02;;;;;;;2.07;1.97;;;36.90;38.30;;;;;;5072114;28;20463;-69
2023/05/12 12:16:30;;;;;;;3.00;1.70;;;38.60;35.60;;;;;;5071813;28;20194;-69
2023/05/12 12:18:56;;;;;;;2.20;2.00;;;40.10;34.20;;;;;;5053753;28;20253;-70
2023/05/12 12:21:25;;;;;;;2.57;2.10;;;40.50;31.30;;;;;;5071963;28;20525;-69
2023/05/12 12:23:51;;;;;;;3.60;2.90;;;39.90;29.70;;;;;;5071899;28;20405;-69
2023/05/12 12:26:19;;;;;;;2.50;2.30;;;39.30;31.10;;;;;;5071838;28;20836;-69
2023/05/12 12:28:46;;;;;;;2.10;1.90;;;38.80;32.20;;;;;;5071814;28;20528;-69
2023/05/12 12:31:12;;;;;;;2.40;2.20;;;37.70;31.90;;;;;;5071872;28;20439;-69
2023/05/12 12:33:38;;;;;;;1.70;1.60;;;36.30;31.80;;;;;;5071801;28;20400;-69
2023/05/12 12:36:04;;;;;;;2.40;1.97;;;35.80;33.60;;;;;;5071688;28;21020;-69
2023/05/12 12:38:30;;;;;;;2.13;1.93;;;35.50;33.70;;;;;;5053354;28;20173;-69
2023/05/12 12:40:55;;;;;;;2.67;2.10;;;35.00;34.20;;;;;;5071797;28;20893;-69
2023/05/12 12:43:21;;;;;;;2.53;2.33;;;34.30;35.20;;;;;;5053731;28;20201;-69